sensor_id;sensor_type;location;lat;lon;timestamp;temperature;humidity
51007;DHT22;37034;47.886;-3.904;2023-09-30T00:00:57;17.30;93.20
51007;DHT22;37034;47.886;-3.904;2023-09-30T00:03:23;17.20;93.20
51007;DHT22;37034;47.886;-3.904;2023-09-30T00:05:49;17.20;93.30
51007;DHT22;37034;47.886;-3.904;2023-09-30T00:08:15;17.20;93.30
51007;DHT22;37034;47.886;-3.904;2023-09-30T00:10:41;17.20;93.40
51007;DHT22;37034;47.886;-3.904;2023-09-30T00:13:06;17.20;93.40
51007;DHT22;37034;47.886;-3.904;2023-09-30T00:15:35;17.20;93.30
51007;DHT22;37034;47.886;-3.904;2023-09-30T00:18:01;17.20;93.40
51007;DHT22;37034;47.886;-3.904;2023-09-30T00:20:30;17.20;93.30
51007;DHT22;37034;47.886;-3.904;2023-09-30T00:22:55;17.20;93.40
51007;DHT22;37034;47.886;-3.904;2023-09-30T00:25:21;17.20;93.60
51007;DHT22;37034;47.886;-3.904;2023-09-30T00:27:48;17.30;93.60
51007;DHT22;37034;47.886;-3.904;2023-09-30T00:30:13;17.30;93.40
51007;DHT22;37034;47.886;-3.904;2023-09-30T00:32:39;17.40;93.40
51007;DHT22;37034;47.886;-3.904;2023-09-30T00:35:05;17.40;93.20
51007;DHT22;37034;47.886;-3.904;2023-09-30T00:37:39;17.40;93.50
51007;DHT22;37034;47.886;-3.904;2023-09-30T00:40:06;17.30;93.50
51007;DHT22;37034;47.886;-3.904;2023-09-30T00:42:32;17.30;93.30
51007;DHT22;37034;47.886;-3.904;2023-09-30T00:44:58;17.40;93.30
51007;DHT22;37034;47.886;-3.904;2023-09-30T00:47:24;17.40;93.20
51007;DHT22;37034;47.886;-3.904;2023-09-30T00:49:51;17.40;93.30
51007;DHT22;37034;47.886;-3.904;2023-09-30T00:52:19;17.40;93.10
51007;DHT22;37034;47.886;-3.904;2023-09-30T00:54:46;17.40;93.20
51007;DHT22;37034;47.886;-3.904;2023-09-30T00:57:13;17.40;93.20
51007;DHT22;37034;47.886;-3.904;2023-09-30T00:59:39;17.40;93.20
51007;DHT22;37034;47.886;-3.904;2023-09-30T01:02:05;17.40;93.20
51007;DHT22;37034;47.886;-3.904;2023-09-30T01:04:32;17.40;93.10
51007;DHT22;37034;47.886;-3.904;2023-09-30T01:06:57;17.40;93.10
51007;DHT22;37034;47.886;-3.904;2023-09-30T01:09:23;17.40;93.20
51007;DHT22;37034;47.886;-3.904;2023-09-30T01:11:50;17.50;93.30
51007;DHT22;37034;47.886;-3.904;2023-09-30T01:14:30;17.50;93.10
51007;DHT22;37034;47.886;-3.904;2023-09-30T01:16:57;17.40;93.30
51007;DHT22;37034;47.886;-3.904;2023-09-30T01:19:23;17.40;93.30
51007;DHT22;37034;47.886;-3.904;2023-09-30T01:21:59;17.40;93.30
51007;DHT22;37034;47.886;-3.904;2023-09-30T01:24:41;17.40;93.40
51007;DHT22;37034;47.886;-3.904;2023-09-30T01:27:07;17.40;93.30
51007;DHT22;37034;47.886;-3.904;2023-09-30T01:29:33;17.40;93.20
51007;DHT22;37034;47.886;-3.904;2023-09-30T01:31:59;17.40;93.20
51007;DHT22;37034;47.886;-3.904;2023-09-30T01:34:25;17.30;93.20
51007;DHT22;37034;47.886;-3.904;2023-09-30T01:36:51;17.30;93.30
51007;DHT22;37034;47.886;-3.904;2023-09-30T01:39:16;17.20;93.30
51007;DHT22;37034;47.886;-3.904;2023-09-30T01:41:43;17.30;93.30
51007;DHT22;37034;47.886;-3.904;2023-09-30T01:44:09;17.30;93.20
51007;DHT22;37034;47.886;-3.904;2023-09-30T01:46:34;17.30;93.20
51007;DHT22;37034;47.886;-3.904;2023-09-30T01:49:00;17.40;93.20
51007;DHT22;37034;47.886;-3.904;2023-09-30T01:51:26;17.30;93.40
51007;DHT22;37034;47.886;-3.904;2023-09-30T01:53:53;17.30;93.20
51007;DHT22;37034;47.886;-3.904;2023-09-30T01:56:18;17.40;93.20
51007;DHT22;37034;47.886;-3.904;2023-09-30T01:58:44;17.40;93.20
51007;DHT22;37034;47.886;-3.904;2023-09-30T02:01:10;17.40;93.10
51007;DHT22;37034;47.886;-3.904;2023-09-30T02:03:35;17.40;93.10
51007;DHT22;37034;47.886;-3.904;2023-09-30T02:06:01;17.40;93.10
51007;DHT22;37034;47.886;-3.904;2023-09-30T02:08:29;17.40;93.00
51007;DHT22;37034;47.886;-3.904;2023-09-30T02:10:54;17.40;92.90
51007;DHT22;37034;47.886;-3.904;2023-09-30T02:13:20;17.40;93.00
51007;DHT22;37034;47.886;-3.904;2023-09-30T02:15:46;17.40;92.90
51007;DHT22;37034;47.886;-3.904;2023-09-30T02:18:11;17.40;92.90
51007;DHT22;37034;47.886;-3.904;2023-09-30T02:20:37;17.30;93.00
51007;DHT22;37034;47.886;-3.904;2023-09-30T02:23:07;17.30;93.00
51007;DHT22;37034;47.886;-3.904;2023-09-30T02:25:33;17.30;92.90
51007;DHT22;37034;47.886;-3.904;2023-09-30T02:27:59;17.30;93.00
51007;DHT22;37034;47.886;-3.904;2023-09-30T02:30:26;17.30;93.00
51007;DHT22;37034;47.886;-3.904;2023-09-30T02:32:53;17.30;93.00
51007;DHT22;37034;47.886;-3.904;2023-09-30T02:35:18;17.30;93.20
51007;DHT22;37034;47.886;-3.904;2023-09-30T02:37:46;17.30;93.10
51007;DHT22;37034;47.886;-3.904;2023-09-30T02:40:11;17.30;93.10
51007;DHT22;37034;47.886;-3.904;2023-09-30T02:42:40;17.30;93.00
51007;DHT22;37034;47.886;-3.904;2023-09-30T02:45:07;17.20;93.10
51007;DHT22;37034;47.886;-3.904;2023-09-30T02:47:37;17.20;93.00
51007;DHT22;37034;47.886;-3.904;2023-09-30T02:50:05;17.20;93.00
51007;DHT22;37034;47.886;-3.904;2023-09-30T02:52:31;17.10;93.10
51007;DHT22;37034;47.886;-3.904;2023-09-30T02:54:58;17.10;93.20
51007;DHT22;37034;47.886;-3.904;2023-09-30T02:57:24;17.10;93.20
51007;DHT22;37034;47.886;-3.904;2023-09-30T02:59:50;17.10;93.20
51007;DHT22;37034;47.886;-3.904;2023-09-30T03:02:17;17.10;93.20
51007;DHT22;37034;47.886;-3.904;2023-09-30T03:04:44;17.10;93.10
51007;DHT22;37034;47.886;-3.904;2023-09-30T03:07:10;17.10;93.20
51007;DHT22;37034;47.886;-3.904;2023-09-30T03:09:35;17.10;93.30
51007;DHT22;37034;47.886;-3.904;2023-09-30T03:12:02;17.10;93.20
51007;DHT22;37034;47.886;-3.904;2023-09-30T03:14:30;17.10;93.20
51007;DHT22;37034;47.886;-3.904;2023-09-30T03:16:57;17.10;93.20
51007;DHT22;37034;47.886;-3.904;2023-09-30T03:19:23;17.00;93.30
51007;DHT22;37034;47.886;-3.904;2023-09-30T03:21:49;17.00;93.30
51007;DHT22;37034;47.886;-3.904;2023-09-30T03:24:15;17.00;93.40
51007;DHT22;37034;47.886;-3.904;2023-09-30T03:26:41;17.10;93.30
51007;DHT22;37034;47.886;-3.904;2023-09-30T03:29:07;17.10;93.30
51007;DHT22;37034;47.886;-3.904;2023-09-30T03:31:35;17.10;93.30
51007;DHT22;37034;47.886;-3.904;2023-09-30T03:34:01;17.10;93.30
51007;DHT22;37034;47.886;-3.904;2023-09-30T03:36:27;17.10;93.30
51007;DHT22;37034;47.886;-3.904;2023-09-30T03:38:53;17.10;93.20
51007;DHT22;37034;47.886;-3.904;2023-09-30T03:41:24;17.10;93.30
51007;DHT22;37034;47.886;-3.904;2023-09-30T03:43:50;17.10;93.20
51007;DHT22;37034;47.886;-3.904;2023-09-30T03:46:16;17.10;93.20
51007;DHT22;37034;47.886;-3.904;2023-09-30T03:48:42;17.10;93.20
51007;DHT22;37034;47.886;-3.904;2023-09-30T03:51:12;17.10;93.20
51007;DHT22;37034;47.886;-3.904;2023-09-30T03:53:42;17.10;93.30
51007;DHT22;37034;47.886;-3.904;2023-09-30T03:56:08;17.00;93.20
51007;DHT22;37034;47.886;-3.904;2023-09-30T03:58:37;17.00;93.20
51007;DHT22;37034;47.886;-3.904;2023-09-30T04:01:04;17.00;93.40
51007;DHT22;37034;47.886;-3.904;2023-09-30T04:03:30;16.90;93.30
51007;DHT22;37034;47.886;-3.904;2023-09-30T04:05:58;16.90;93.40
51007;DHT22;37034;47.886;-3.904;2023-09-30T04:08:24;16.80;93.40
51007;DHT22;37034;47.886;-3.904;2023-09-30T04:10:49;16.90;93.60
51007;DHT22;37034;47.886;-3.904;2023-09-30T04:13:15;16.90;93.40
51007;DHT22;37034;47.886;-3.904;2023-09-30T04:15:41;16.90;93.40
51007;DHT22;37034;47.886;-3.904;2023-09-30T04:18:07;16.90;93.50
51007;DHT22;37034;47.886;-3.904;2023-09-30T04:20:33;16.90;93.40
51007;DHT22;37034;47.886;-3.904;2023-09-30T04:22:58;16.90;93.40
51007;DHT22;37034;47.886;-3.904;2023-09-30T04:25:24;16.80;93.40
51007;DHT22;37034;47.886;-3.904;2023-09-30T04:27:51;16.80;93.40
51007;DHT22;37034;47.886;-3.904;2023-09-30T04:30:17;16.80;93.40
51007;DHT22;37034;47.886;-3.904;2023-09-30T04:32:43;16.80;93.50
51007;DHT22;37034;47.886;-3.904;2023-09-30T04:35:09;16.70;93.40
51007;DHT22;37034;47.886;-3.904;2023-09-30T04:37:35;16.70;93.50
51007;DHT22;37034;47.886;-3.904;2023-09-30T04:40:04;16.60;93.60
51007;DHT22;37034;47.886;-3.904;2023-09-30T04:42:33;16.60;93.70
51007;DHT22;37034;47.886;-3.904;2023-09-30T04:45:01;16.60;93.70
51007;DHT22;37034;47.886;-3.904;2023-09-30T04:47:28;16.70;93.70
51007;DHT22;37034;47.886;-3.904;2023-09-30T04:49:54;16.70;93.80
51007;DHT22;37034;47.886;-3.904;2023-09-30T04:52:19;16.70;93.70
51007;DHT22;37034;47.886;-3.904;2023-09-30T04:54:46;16.70;93.70
51007;DHT22;37034;47.886;-3.904;2023-09-30T04:57:11;16.70;93.70
51007;DHT22;37034;47.886;-3.904;2023-09-30T04:59:37;16.60;93.70
51007;DHT22;37034;47.886;-3.904;2023-09-30T05:02:02;16.70;93.70
51007;DHT22;37034;47.886;-3.904;2023-09-30T05:04:29;16.60;93.80
51007;DHT22;37034;47.886;-3.904;2023-09-30T05:06:55;16.70;93.70
51007;DHT22;37034;47.886;-3.904;2023-09-30T05:09:20;16.60;93.70
51007;DHT22;37034;47.886;-3.904;2023-09-30T05:11:46;16.60;93.70
51007;DHT22;37034;47.886;-3.904;2023-09-30T05:14:12;16.60;93.70
51007;DHT22;37034;47.886;-3.904;2023-09-30T05:16:38;16.50;93.80
51007;DHT22;37034;47.886;-3.904;2023-09-30T05:19:04;16.60;93.80
51007;DHT22;37034;47.886;-3.904;2023-09-30T05:21:30;16.60;93.80
51007;DHT22;37034;47.886;-3.904;2023-09-30T05:23:55;16.60;93.80
51007;DHT22;37034;47.886;-3.904;2023-09-30T05:26:22;16.60;93.80
51007;DHT22;37034;47.886;-3.904;2023-09-30T05:28:47;16.60;93.80
51007;DHT22;37034;47.886;-3.904;2023-09-30T05:31:13;16.60;93.80
51007;DHT22;37034;47.886;-3.904;2023-09-30T05:33:38;16.60;93.90
51007;DHT22;37034;47.886;-3.904;2023-09-30T05:36:04;16.60;93.90
51007;DHT22;37034;47.886;-3.904;2023-09-30T05:38:30;16.50;93.90
51007;DHT22;37034;47.886;-3.904;2023-09-30T05:40:56;16.50;93.80
51007;DHT22;37034;47.886;-3.904;2023-09-30T05:43:24;16.50;94.00
51007;DHT22;37034;47.886;-3.904;2023-09-30T05:45:50;16.50;93.90
51007;DHT22;37034;47.886;-3.904;2023-09-30T05:48:21;16.50;93.90
51007;DHT22;37034;47.886;-3.904;2023-09-30T05:50:47;16.50;94.00
51007;DHT22;37034;47.886;-3.904;2023-09-30T05:53:13;16.50;94.00
51007;DHT22;37034;47.886;-3.904;2023-09-30T05:55:39;16.50;94.00
51007;DHT22;37034;47.886;-3.904;2023-09-30T05:58:07;16.50;94.00
51007;DHT22;37034;47.886;-3.904;2023-09-30T06:00:33;16.50;94.00
51007;DHT22;37034;47.886;-3.904;2023-09-30T06:03:01;16.50;94.10
51007;DHT22;37034;47.886;-3.904;2023-09-30T06:05:27;16.50;94.00
51007;DHT22;37034;47.886;-3.904;2023-09-30T06:07:58;16.50;94.00
51007;DHT22;37034;47.886;-3.904;2023-09-30T06:10:24;16.50;94.00
51007;DHT22;37034;47.886;-3.904;2023-09-30T06:12:52;16.50;94.00
51007;DHT22;37034;47.886;-3.904;2023-09-30T06:15:22;16.50;94.10
51007;DHT22;37034;47.886;-3.904;2023-09-30T06:17:51;16.50;94.10
51007;DHT22;37034;47.886;-3.904;2023-09-30T06:20:18;16.40;94.10
51007;DHT22;37034;47.886;-3.904;2023-09-30T06:22:44;16.40;94.20
51007;DHT22;37034;47.886;-3.904;2023-09-30T06:25:15;16.40;94.20
51007;DHT22;37034;47.886;-3.904;2023-09-30T06:27:43;16.40;94.30
51007;DHT22;37034;47.886;-3.904;2023-09-30T06:30:09;16.40;94.20
51007;DHT22;37034;47.886;-3.904;2023-09-30T06:32:35;16.40;94.20
51007;DHT22;37034;47.886;-3.904;2023-09-30T06:35:02;16.40;94.30
51007;DHT22;37034;47.886;-3.904;2023-09-30T06:37:28;16.50;94.30
51007;DHT22;37034;47.886;-3.904;2023-09-30T06:39:55;16.50;94.20
51007;DHT22;37034;47.886;-3.904;2023-09-30T06:42:21;16.50;94.30
51007;DHT22;37034;47.886;-3.904;2023-09-30T06:44:47;16.50;94.30
51007;DHT22;37034;47.886;-3.904;2023-09-30T06:47:13;16.50;94.30
51007;DHT22;37034;47.886;-3.904;2023-09-30T06:49:39;16.50;94.40
51007;DHT22;37034;47.886;-3.904;2023-09-30T06:52:05;16.50;94.40
51007;DHT22;37034;47.886;-3.904;2023-09-30T06:54:31;16.50;94.40
51007;DHT22;37034;47.886;-3.904;2023-09-30T06:56:57;16.60;94.50
51007;DHT22;37034;47.886;-3.904;2023-09-30T06:59:22;16.60;94.50
51007;DHT22;37034;47.886;-3.904;2023-09-30T07:01:48;16.60;94.50
51007;DHT22;37034;47.886;-3.904;2023-09-30T07:04:13;16.70;94.60
51007;DHT22;37034;47.886;-3.904;2023-09-30T07:06:39;16.70;94.50
51007;DHT22;37034;47.886;-3.904;2023-09-30T07:09:05;16.80;94.60
51007;DHT22;37034;47.886;-3.904;2023-09-30T07:11:30;16.80;94.70
51007;DHT22;37034;47.886;-3.904;2023-09-30T07:13:59;16.90;94.70
51007;DHT22;37034;47.886;-3.904;2023-09-30T07:16:25;17.00;94.80
51007;DHT22;37034;47.886;-3.904;2023-09-30T07:18:51;17.00;94.60
51007;DHT22;37034;47.886;-3.904;2023-09-30T07:21:17;17.10;94.70
51007;DHT22;37034;47.886;-3.904;2023-09-30T07:23:42;17.20;94.60
51007;DHT22;37034;47.886;-3.904;2023-09-30T07:26:08;17.20;94.70
51007;DHT22;37034;47.886;-3.904;2023-09-30T07:28:34;17.30;94.70
51007;DHT22;37034;47.886;-3.904;2023-09-30T07:31:00;17.30;94.60
51007;DHT22;37034;47.886;-3.904;2023-09-30T07:33:25;17.40;94.70
51007;DHT22;37034;47.886;-3.904;2023-09-30T07:35:51;17.50;94.70
51007;DHT22;37034;47.886;-3.904;2023-09-30T07:38:17;17.50;94.70
51007;DHT22;37034;47.886;-3.904;2023-09-30T07:40:43;17.60;94.80
51007;DHT22;37034;47.886;-3.904;2023-09-30T07:43:09;17.70;94.80
51007;DHT22;37034;47.886;-3.904;2023-09-30T07:45:35;17.80;94.80
51007;DHT22;37034;47.886;-3.904;2023-09-30T07:48:01;17.80;94.80
51007;DHT22;37034;47.886;-3.904;2023-09-30T07:50:30;17.80;94.90
51007;DHT22;37034;47.886;-3.904;2023-09-30T07:52:55;18.00;94.90
51007;DHT22;37034;47.886;-3.904;2023-09-30T07:55:21;18.10;95.10
51007;DHT22;37034;47.886;-3.904;2023-09-30T07:57:46;18.20;95.10
51007;DHT22;37034;47.886;-3.904;2023-09-30T08:00:12;18.30;95.10
51007;DHT22;37034;47.886;-3.904;2023-09-30T08:02:41;18.40;95.00
51007;DHT22;37034;47.886;-3.904;2023-09-30T08:05:08;18.50;94.90
51007;DHT22;37034;47.886;-3.904;2023-09-30T08:07:34;18.60;95.00
51007;DHT22;37034;47.886;-3.904;2023-09-30T08:10:00;18.70;95.00
51007;DHT22;37034;47.886;-3.904;2023-09-30T08:12:26;18.80;95.00
51007;DHT22;37034;47.886;-3.904;2023-09-30T08:14:52;18.80;95.00
51007;DHT22;37034;47.886;-3.904;2023-09-30T08:17:18;18.90;95.10
51007;DHT22;37034;47.886;-3.904;2023-09-30T08:19:46;19.00;95.10
51007;DHT22;37034;47.886;-3.904;2023-09-30T08:22:13;19.00;95.10
51007;DHT22;37034;47.886;-3.904;2023-09-30T08:24:39;19.10;95.20
51007;DHT22;37034;47.886;-3.904;2023-09-30T08:27:05;19.20;95.00
51007;DHT22;37034;47.886;-3.904;2023-09-30T08:29:34;19.30;95.00
51007;DHT22;37034;47.886;-3.904;2023-09-30T08:32:02;19.30;95.00
51007;DHT22;37034;47.886;-3.904;2023-09-30T08:34:28;19.40;95.10
51007;DHT22;37034;47.886;-3.904;2023-09-30T08:36:54;19.40;95.00
51007;DHT22;37034;47.886;-3.904;2023-09-30T08:39:20;19.50;95.10
51007;DHT22;37034;47.886;-3.904;2023-09-30T08:41:45;19.60;95.10
51007;DHT22;37034;47.886;-3.904;2023-09-30T08:44:11;19.60;95.10
51007;DHT22;37034;47.886;-3.904;2023-09-30T08:46:39;19.80;95.20
51007;DHT22;37034;47.886;-3.904;2023-09-30T08:49:06;19.80;94.80
51007;DHT22;37034;47.886;-3.904;2023-09-30T08:51:32;19.90;95.00
51007;DHT22;37034;47.886;-3.904;2023-09-30T08:53:59;20.00;95.00
51007;DHT22;37034;47.886;-3.904;2023-09-30T08:56:30;20.10;95.10
51007;DHT22;37034;47.886;-3.904;2023-09-30T08:58:59;20.10;95.10
51007;DHT22;37034;47.886;-3.904;2023-09-30T09:01:29;20.20;95.00
51007;DHT22;37034;47.886;-3.904;2023-09-30T09:03:56;20.20;95.10
51007;DHT22;37034;47.886;-3.904;2023-09-30T09:06:23;20.30;95.50
51007;DHT22;37034;47.886;-3.904;2023-09-30T09:08:50;20.40;95.10
51007;DHT22;37034;47.886;-3.904;2023-09-30T09:11:17;20.50;95.40
51007;DHT22;37034;47.886;-3.904;2023-09-30T09:13:51;20.50;95.30
51007;DHT22;37034;47.886;-3.904;2023-09-30T09:16:21;20.60;95.40
51007;DHT22;37034;47.886;-3.904;2023-09-30T09:18:47;20.70;95.30
51007;DHT22;37034;47.886;-3.904;2023-09-30T09:21:15;20.70;95.20
51007;DHT22;37034;47.886;-3.904;2023-09-30T09:23:49;20.90;95.50
51007;DHT22;37034;47.886;-3.904;2023-09-30T09:26:29;21.00;95.50
51007;DHT22;37034;47.886;-3.904;2023-09-30T09:29:02;21.00;95.40
51007;DHT22;37034;47.886;-3.904;2023-09-30T09:31:31;21.00;95.10
51007;DHT22;37034;47.886;-3.904;2023-09-30T09:33:57;21.10;95.10
51007;DHT22;37034;47.886;-3.904;2023-09-30T09:36:38;21.10;95.20
51007;DHT22;37034;47.886;-3.904;2023-09-30T09:39:06;21.30;95.00
51007;DHT22;37034;47.886;-3.904;2023-09-30T09:41:31;21.30;94.60
51007;DHT22;37034;47.886;-3.904;2023-09-30T09:43:59;21.20;95.10
51007;DHT22;37034;47.886;-3.904;2023-09-30T09:46:24;21.30;94.90
51007;DHT22;37034;47.886;-3.904;2023-09-30T09:48:51;21.30;94.90
51007;DHT22;37034;47.886;-3.904;2023-09-30T09:51:18;21.40;95.00
51007;DHT22;37034;47.886;-3.904;2023-09-30T09:53:44;21.50;94.50
51007;DHT22;37034;47.886;-3.904;2023-09-30T09:56:10;21.50;94.30
51007;DHT22;37034;47.886;-3.904;2023-09-30T09:58:38;21.40;94.60
51007;DHT22;37034;47.886;-3.904;2023-09-30T10:01:06;21.30;94.90
51007;DHT22;37034;47.886;-3.904;2023-09-30T10:03:32;21.50;94.80
51007;DHT22;37034;47.886;-3.904;2023-09-30T10:05:59;21.60;94.60
51007;DHT22;37034;47.886;-3.904;2023-09-30T10:08:39;21.60;94.60
51007;DHT22;37034;47.886;-3.904;2023-09-30T10:11:06;21.70;94.40
51007;DHT22;37034;47.886;-3.904;2023-09-30T10:19:16;21.50;94.30
51007;DHT22;37034;47.886;-3.904;2023-09-30T10:24:48;21.50;94.60
51007;DHT22;37034;47.886;-3.904;2023-09-30T10:30:11;21.90;94.40
51007;DHT22;37034;47.886;-3.904;2023-09-30T10:40:51;22.00;94.10
51007;DHT22;37034;47.886;-3.904;2023-09-30T10:43:33;22.00;93.80
51007;DHT22;37034;47.886;-3.904;2023-09-30T10:46:03;22.10;93.60
51007;DHT22;37034;47.886;-3.904;2023-09-30T10:48:34;22.10;94.10
51007;DHT22;37034;47.886;-3.904;2023-09-30T10:51:12;22.00;93.70
51007;DHT22;37034;47.886;-3.904;2023-09-30T10:53:45;21.90;94.20
51007;DHT22;37034;47.886;-3.904;2023-09-30T10:56:12;22.00;94.20
51007;DHT22;37034;47.886;-3.904;2023-09-30T10:58:53;22.10;94.00
51007;DHT22;37034;47.886;-3.904;2023-09-30T11:01:23;22.20;94.20
51007;DHT22;37034;47.886;-3.904;2023-09-30T11:03:57;22.30;93.90
51007;DHT22;37034;47.886;-3.904;2023-09-30T11:06:23;22.40;93.70
51007;DHT22;37034;47.886;-3.904;2023-09-30T11:11:15;22.50;94.00
51007;DHT22;37034;47.886;-3.904;2023-09-30T11:13:41;22.60;94.00
51007;DHT22;37034;47.886;-3.904;2023-09-30T11:16:07;22.60;93.90
51007;DHT22;37034;47.886;-3.904;2023-09-30T11:18:34;22.60;93.90
51007;DHT22;37034;47.886;-3.904;2023-09-30T11:21:11;22.70;93.90
51007;DHT22;37034;47.886;-3.904;2023-09-30T11:23:38;22.60;93.80
51007;DHT22;37034;47.886;-3.904;2023-09-30T11:26:04;22.70;94.10
51007;DHT22;37034;47.886;-3.904;2023-09-30T11:28:38;22.80;93.90
51007;DHT22;37034;47.886;-3.904;2023-09-30T11:31:08;22.90;94.20
51007;DHT22;37034;47.886;-3.904;2023-09-30T11:33:53;23.00;94.20
51007;DHT22;37034;47.886;-3.904;2023-09-30T11:36:21;23.00;94.00
51007;DHT22;37034;47.886;-3.904;2023-09-30T11:38:48;23.00;94.00
51007;DHT22;37034;47.886;-3.904;2023-09-30T11:41:15;23.20;94.20
51007;DHT22;37034;47.886;-3.904;2023-09-30T11:44:09;23.20;94.00
51007;DHT22;37034;47.886;-3.904;2023-09-30T11:46:56;23.30;94.00
51007;DHT22;37034;47.886;-3.904;2023-09-30T11:49:39;23.10;93.90
51007;DHT22;37034;47.886;-3.904;2023-09-30T11:52:07;23.10;93.80
51007;DHT22;37034;47.886;-3.904;2023-09-30T11:54:39;23.10;93.90
51007;DHT22;37034;47.886;-3.904;2023-09-30T11:57:12;22.90;93.60
51007;DHT22;37034;47.886;-3.904;2023-09-30T11:59:41;22.90;94.10
51007;DHT22;37034;47.886;-3.904;2023-09-30T12:02:08;23.00;94.00
51007;DHT22;37034;47.886;-3.904;2023-09-30T12:04:35;23.10;93.60
51007;DHT22;37034;47.886;-3.904;2023-09-30T12:07:01;23.10;93.60
51007;DHT22;37034;47.886;-3.904;2023-09-30T12:09:27;23.10;93.80
51007;DHT22;37034;47.886;-3.904;2023-09-30T12:11:54;23.20;93.70
51007;DHT22;37034;47.886;-3.904;2023-09-30T12:14:20;23.30;93.50
51007;DHT22;37034;47.886;-3.904;2023-09-30T12:16:47;23.30;93.50
51007;DHT22;37034;47.886;-3.904;2023-09-30T12:19:19;23.30;93.50
51007;DHT22;37034;47.886;-3.904;2023-09-30T12:21:46;23.50;93.60
51007;DHT22;37034;47.886;-3.904;2023-09-30T12:24:14;23.60;93.60
51007;DHT22;37034;47.886;-3.904;2023-09-30T12:26:45;23.70;93.30
51007;DHT22;37034;47.886;-3.904;2023-09-30T12:29:17;23.70;93.40
51007;DHT22;37034;47.886;-3.904;2023-09-30T12:31:47;23.70;93.30
51007;DHT22;37034;47.886;-3.904;2023-09-30T12:34:13;23.70;93.20
51007;DHT22;37034;47.886;-3.904;2023-09-30T12:36:40;23.70;93.50
51007;DHT22;37034;47.886;-3.904;2023-09-30T12:39:06;23.80;93.20
51007;DHT22;37034;47.886;-3.904;2023-09-30T12:41:42;23.80;93.20
51007;DHT22;37034;47.886;-3.904;2023-09-30T12:44:08;23.80;93.30
51007;DHT22;37034;47.886;-3.904;2023-09-30T12:46:35;23.90;93.20
51007;DHT22;37034;47.886;-3.904;2023-09-30T12:49:05;23.90;92.80
51007;DHT22;37034;47.886;-3.904;2023-09-30T12:51:32;23.70;92.80
51007;DHT22;37034;47.886;-3.904;2023-09-30T12:53:59;23.70;92.90
51007;DHT22;37034;47.886;-3.904;2023-09-30T12:56:25;23.70;93.00
51007;DHT22;37034;47.886;-3.904;2023-09-30T12:58:51;23.60;92.70
51007;DHT22;37034;47.886;-3.904;2023-09-30T13:01:16;23.50;93.10
51007;DHT22;37034;47.886;-3.904;2023-09-30T13:03:46;23.50;93.10
51007;DHT22;37034;47.886;-3.904;2023-09-30T13:06:12;23.60;93.40
51007;DHT22;37034;47.886;-3.904;2023-09-30T13:08:38;23.60;93.00
51007;DHT22;37034;47.886;-3.904;2023-09-30T13:11:04;23.70;93.30
51007;DHT22;37034;47.886;-3.904;2023-09-30T13:13:31;23.70;93.00
51007;DHT22;37034;47.886;-3.904;2023-09-30T13:15:59;23.80;93.00
51007;DHT22;37034;47.886;-3.904;2023-09-30T13:18:25;23.80;93.00
51007;DHT22;37034;47.886;-3.904;2023-09-30T13:20:50;23.90;93.00
51007;DHT22;37034;47.886;-3.904;2023-09-30T13:23:17;24.10;93.00
51007;DHT22;37034;47.886;-3.904;2023-09-30T13:25:44;24.20;92.90
51007;DHT22;37034;47.886;-3.904;2023-09-30T13:28:10;24.20;92.90
51007;DHT22;37034;47.886;-3.904;2023-09-30T13:30:35;24.20;92.80
51007;DHT22;37034;47.886;-3.904;2023-09-30T13:33:01;24.30;92.80
51007;DHT22;37034;47.886;-3.904;2023-09-30T13:35:27;24.30;93.00
51007;DHT22;37034;47.886;-3.904;2023-09-30T13:37:53;24.40;92.60
51007;DHT22;37034;47.886;-3.904;2023-09-30T13:40:18;24.30;92.70
51007;DHT22;37034;47.886;-3.904;2023-09-30T13:42:45;24.30;92.60
51007;DHT22;37034;47.886;-3.904;2023-09-30T13:45:11;24.20;92.80
51007;DHT22;37034;47.886;-3.904;2023-09-30T13:47:36;24.10;92.70
51007;DHT22;37034;47.886;-3.904;2023-09-30T13:50:03;24.10;92.60
51007;DHT22;37034;47.886;-3.904;2023-09-30T13:52:35;24.10;92.70
51007;DHT22;37034;47.886;-3.904;2023-09-30T13:55:01;24.10;92.90
51007;DHT22;37034;47.886;-3.904;2023-09-30T13:57:28;24.20;92.70
51007;DHT22;37034;47.886;-3.904;2023-09-30T13:59:53;24.10;92.50
51007;DHT22;37034;47.886;-3.904;2023-09-30T14:02:19;24.00;92.60
51007;DHT22;37034;47.886;-3.904;2023-09-30T14:04:45;24.10;92.70
51007;DHT22;37034;47.886;-3.904;2023-09-30T14:07:10;24.10;92.70
51007;DHT22;37034;47.886;-3.904;2023-09-30T14:09:36;24.00;92.50
51007;DHT22;37034;47.886;-3.904;2023-09-30T14:12:03;23.90;92.50
51007;DHT22;37034;47.886;-3.904;2023-09-30T14:14:33;23.90;92.50
51007;DHT22;37034;47.886;-3.904;2023-09-30T14:16:59;23.90;92.60
51007;DHT22;37034;47.886;-3.904;2023-09-30T14:19:25;23.90;92.70
51007;DHT22;37034;47.886;-3.904;2023-09-30T14:21:51;23.90;92.60
51007;DHT22;37034;47.886;-3.904;2023-09-30T14:24:17;23.90;92.60
51007;DHT22;37034;47.886;-3.904;2023-09-30T14:26:42;23.90;92.60
51007;DHT22;37034;47.886;-3.904;2023-09-30T14:29:09;23.80;92.60
51007;DHT22;37034;47.886;-3.904;2023-09-30T14:31:38;23.70;92.60
51007;DHT22;37034;47.886;-3.904;2023-09-30T14:34:03;23.70;92.80
51007;DHT22;37034;47.886;-3.904;2023-09-30T14:36:30;23.80;92.80
51007;DHT22;37034;47.886;-3.904;2023-09-30T14:38:59;23.70;92.50
51007;DHT22;37034;47.886;-3.904;2023-09-30T14:41:25;23.70;92.60
51007;DHT22;37034;47.886;-3.904;2023-09-30T14:43:51;23.70;92.50
51007;DHT22;37034;47.886;-3.904;2023-09-30T14:46:17;23.60;92.60
51007;DHT22;37034;47.886;-3.904;2023-09-30T14:48:42;23.60;92.70
51007;DHT22;37034;47.886;-3.904;2023-09-30T14:51:09;23.60;92.80
51007;DHT22;37034;47.886;-3.904;2023-09-30T14:53:34;23.60;92.80
51007;DHT22;37034;47.886;-3.904;2023-09-30T14:56:00;23.70;92.80
51007;DHT22;37034;47.886;-3.904;2023-09-30T14:58:26;23.70;92.70
51007;DHT22;37034;47.886;-3.904;2023-09-30T15:00:52;23.70;92.60
51007;DHT22;37034;47.886;-3.904;2023-09-30T15:03:19;23.70;92.60
51007;DHT22;37034;47.886;-3.904;2023-09-30T15:05:47;23.60;92.80
51007;DHT22;37034;47.886;-3.904;2023-09-30T15:08:13;23.70;92.90
51007;DHT22;37034;47.886;-3.904;2023-09-30T15:10:39;23.50;92.90
51007;DHT22;37034;47.886;-3.904;2023-09-30T15:13:04;23.50;92.90
51007;DHT22;37034;47.886;-3.904;2023-09-30T15:15:30;23.50;93.10
51007;DHT22;37034;47.886;-3.904;2023-09-30T15:17:56;23.50;93.10
51007;DHT22;37034;47.886;-3.904;2023-09-30T15:20:22;23.50;93.10
51007;DHT22;37034;47.886;-3.904;2023-09-30T15:22:47;23.50;93.20
51007;DHT22;37034;47.886;-3.904;2023-09-30T15:25:13;23.40;93.20
51007;DHT22;37034;47.886;-3.904;2023-09-30T15:27:39;23.40;93.20
51007;DHT22;37034;47.886;-3.904;2023-09-30T15:30:05;23.40;93.30
51007;DHT22;37034;47.886;-3.904;2023-09-30T15:32:32;23.40;93.30
51007;DHT22;37034;47.886;-3.904;2023-09-30T15:34:57;23.40;93.30
51007;DHT22;37034;47.886;-3.904;2023-09-30T15:37:24;23.50;93.40